createdAt,value
2019-03-08T00:01:22.934Z,5.00
2019-03-08T00:03:51.374Z,4.28
2019-03-08T00:06:19.825Z,3.42
2019-03-08T00:08:48.242Z,4.33
2019-03-08T00:11:16.632Z,3.52
2019-03-08T00:13:45.052Z,3.72
2019-03-08T00:16:13.419Z,4.33
2019-03-08T00:18:42.011Z,4.20
2019-03-08T00:21:10.508Z,3.77
2019-03-08T00:23:39.073Z,4.62
2019-03-08T00:26:07.458Z,4.22
2019-03-08T00:28:35.861Z,4.60
2019-03-08T00:31:04.267Z,4.28
2019-03-08T00:33:32.657Z,4.97
2019-03-08T00:36:01.070Z,4.92
2019-03-08T00:38:29.642Z,4.50
2019-03-08T00:40:58.046Z,4.62
2019-03-08T00:43:27.476Z,4.60
2019-03-08T00:45:56.913Z,4.80
2019-03-08T00:48:25.339Z,4.97
2019-03-08T00:50:53.715Z,5.12
2019-03-08T00:53:22.177Z,5.30
2019-03-08T00:55:50.675Z,5.50
2019-03-08T00:58:19.154Z,6.35
2019-03-08T01:00:47.612Z,6.08
2019-03-08T01:03:16.021Z,6.70
2019-03-08T01:05:44.471Z,6.80
2019-03-08T01:08:14.225Z,6.12
2019-03-08T01:10:42.628Z,6.67
2019-03-08T01:13:11.047Z,7.37
2019-03-08T01:15:41.869Z,7.72
2019-03-08T01:18:10.322Z,7.40
2019-03-08T01:20:38.728Z,8.45
2019-03-08T01:23:07.227Z,8.58
2019-03-08T01:25:35.652Z,9.40
2019-03-08T01:28:09.475Z,9.28
2019-03-08T01:30:39.616Z,9.03
2019-03-08T01:33:08.208Z,9.13
2019-03-08T01:35:36.967Z,10.15
2019-03-08T01:38:05.920Z,8.25
2019-03-08T01:40:34.410Z,8.33
2019-03-08T01:43:03.936Z,8.10
2019-03-08T01:45:32.483Z,8.25
2019-03-08T01:48:00.917Z,8.88
2019-03-08T01:50:29.341Z,9.15
2019-03-08T01:52:58.884Z,9.03
2019-03-08T01:55:27.367Z,8.60
2019-03-08T01:57:55.755Z,9.20
2019-03-08T02:00:24.473Z,9.93
2019-03-08T02:02:52.910Z,9.30
2019-03-08T02:05:22.336Z,9.70
2019-03-08T02:07:50.881Z,9.68
2019-03-08T02:10:19.381Z,8.90
2019-03-08T02:12:47.773Z,9.50
2019-03-08T02:15:18.470Z,9.65
2019-03-08T02:17:46.927Z,9.63
2019-03-08T02:20:21.604Z,9.43
2019-03-08T02:22:50.055Z,9.28
2019-03-08T02:25:18.418Z,9.35
2019-03-08T02:27:46.814Z,8.53
2019-03-08T02:30:18.990Z,5.70
2019-03-08T02:32:49.946Z,4.72
2019-03-08T02:35:20.853Z,4.62
2019-03-08T02:37:49.251Z,4.92
2019-03-08T02:40:39.269Z,4.03
2019-03-08T02:43:17.199Z,3.30
2019-03-08T02:45:43.988Z,3.33
2019-03-08T02:48:14.827Z,3.92
2019-03-08T02:50:44.916Z,2.83
2019-03-08T02:53:13.643Z,3.25
2019-03-08T02:55:42.045Z,3.40
2019-03-08T02:58:10.524Z,3.25
2019-03-08T03:00:42.031Z,3.50
2019-03-08T03:03:11.504Z,3.95
2019-03-08T03:05:40.756Z,4.60
2019-03-08T03:08:09.136Z,4.08
2019-03-08T03:10:37.545Z,4.05
2019-03-08T03:13:10.028Z,4.97
2019-03-08T03:18:06.002Z,5.20
2019-03-08T03:20:36.880Z,5.22
2019-03-08T03:23:05.306Z,5.03
2019-03-08T03:25:33.698Z,5.40
2019-03-08T03:28:02.119Z,5.78
2019-03-08T03:30:30.550Z,4.55
2019-03-08T03:33:01.461Z,5.35
2019-03-08T03:35:30.129Z,5.40
2019-03-08T03:38:01.012Z,5.22
2019-03-08T03:40:31.938Z,6.10
2019-03-08T03:43:00.319Z,6.40
2019-03-08T03:45:28.707Z,6.00
2019-03-08T03:47:57.106Z,6.60
2019-03-08T03:50:25.503Z,6.85
2019-03-08T03:52:53.891Z,6.10
2019-03-08T03:55:22.317Z,7.72
2019-03-08T03:57:50.666Z,7.67
2019-03-08T04:00:23.754Z,6.97
2019-03-08T04:02:52.309Z,6.95
2019-03-08T04:05:20.786Z,7.22
2019-03-08T04:07:49.176Z,7.20
2019-03-08T04:10:18.557Z,8.10
2019-03-08T04:12:47.107Z,7.35
2019-03-08T04:15:17.867Z,7.00
2019-03-08T04:17:46.686Z,5.33
2019-03-08T04:20:18.929Z,5.03
2019-03-08T04:22:47.597Z,4.33
2019-03-08T04:25:16.220Z,4.37
2019-03-08T04:27:44.758Z,4.25
2019-03-08T04:30:20.471Z,4.00
2019-03-08T04:32:48.919Z,4.45
2019-03-08T04:35:17.284Z,4.30
2019-03-08T04:37:48.184Z,4.33
2019-03-08T04:40:18.101Z,3.85
2019-03-08T04:42:46.481Z,3.77
2019-03-08T04:45:17.420Z,4.10
2019-03-08T04:47:45.820Z,4.05
2019-03-08T04:50:15.352Z,3.80
2019-03-08T04:52:43.747Z,3.50
2019-03-08T04:55:14.462Z,3.10
2019-03-08T04:57:46.645Z,3.40
2019-03-08T05:00:16.596Z,3.40
2019-03-08T05:02:44.975Z,2.50
2019-03-08T05:05:13.973Z,2.87
2019-03-08T05:07:45.065Z,2.50
2019-03-08T05:10:20.873Z,3.58
2019-03-08T05:12:49.340Z,3.05
2019-03-08T05:15:18.307Z,2.75
2019-03-08T05:17:46.691Z,2.37
2019-03-08T05:20:15.150Z,2.83
2019-03-08T05:22:43.559Z,1.80
2019-03-08T05:25:14.034Z,1.90
2019-03-08T05:27:44.097Z,1.60
2019-03-08T05:30:14.798Z,1.42
2019-03-08T05:32:43.224Z,1.50
2019-03-08T05:35:13.531Z,1.30
2019-03-08T05:37:41.918Z,1.70
2019-03-08T05:40:13.552Z,2.72
2019-03-08T05:42:47.617Z,2.42
2019-03-08T05:45:16.280Z,2.70
2019-03-08T05:47:44.725Z,2.85
2019-03-08T05:50:17.406Z,3.00
2019-03-08T05:52:48.354Z,3.27
2019-03-08T05:55:17.818Z,3.20
2019-03-08T05:57:46.241Z,2.92
2019-03-08T06:00:32.133Z,2.55
2019-03-08T06:02:56.711Z,2.85
2019-03-08T06:05:25.106Z,2.60
2019-03-08T06:07:53.574Z,3.05
2019-03-08T06:10:33.506Z,2.42
2019-03-08T06:13:06.463Z,2.05
2019-03-08T06:15:34.917Z,1.90
2019-03-08T06:18:03.298Z,2.02
2019-03-08T06:20:31.697Z,2.65
2019-03-08T06:23:04.512Z,2.30
2019-03-08T06:25:49.285Z,2.10
2019-03-08T06:28:17.832Z,2.12
2019-03-08T06:30:46.229Z,1.85
2019-03-08T06:33:14.622Z,1.80
2019-03-08T06:35:43.041Z,2.60
2019-03-08T06:38:15.143Z,2.42
2019-03-08T06:40:43.568Z,2.35
2019-03-08T06:43:16.414Z,2.47
2019-03-08T06:45:44.809Z,3.08
2019-03-08T06:48:13.209Z,4.33
2019-03-08T06:50:41.670Z,3.45
2019-03-08T06:53:10.056Z,2.52
2019-03-08T06:55:38.424Z,2.50
2019-03-08T06:58:07.004Z,3.27
2019-03-08T07:00:37.025Z,3.20
2019-03-08T07:03:09.612Z,3.35
2019-03-08T07:05:38.053Z,4.30
2019-03-08T07:08:06.649Z,3.80
2019-03-08T07:10:35.040Z,3.52
2019-03-08T07:13:03.994Z,4.15
2019-03-08T07:15:32.517Z,4.15
2019-03-08T07:18:01.082Z,5.42
2019-03-08T07:20:32.116Z,5.03
2019-03-08T07:23:02.149Z,5.95
2019-03-08T07:25:32.180Z,5.53
2019-03-08T07:28:22.535Z,6.42
2019-03-08T07:30:57.958Z,5.55
2019-03-08T07:33:24.360Z,7.25
2019-03-08T07:35:54.678Z,7.20
2019-03-08T07:38:39.945Z,7.00
2019-03-08T07:41:14.090Z,6.28
2019-03-08T07:44:10.771Z,5.10
2019-03-08T07:46:43.406Z,5.70
2019-03-08T07:49:13.415Z,6.97
2019-03-08T07:51:44.397Z,6.72
2019-03-08T07:54:31.431Z,7.25
2019-03-08T07:57:09.452Z,7.83
2019-03-08T07:59:53.655Z,8.75
2019-03-08T08:02:37.872Z,7.78
2019-03-08T08:05:25.665Z,6.87
2019-03-08T08:08:05.613Z,6.72
2019-03-08T08:10:36.972Z,7.83
2019-03-08T08:13:23.608Z,6.83
2019-03-08T08:16:05.871Z,8.65
2019-03-08T08:18:35.906Z,8.63
2019-03-08T08:21:12.255Z,7.85
2019-03-08T08:23:58.478Z,8.45
2019-03-08T08:26:35.063Z,8.03
2019-03-08T08:29:21.495Z,8.28
2019-03-08T08:31:57.679Z,6.87
2019-03-08T08:34:39.618Z,6.47
2019-03-08T08:37:25.668Z,5.85
2019-03-08T08:40:04.217Z,6.80
2019-03-08T08:42:36.923Z,7.08
2019-03-08T08:45:10.662Z,6.03
2019-03-08T08:47:46.956Z,6.15
2019-03-08T08:50:16.982Z,6.70
2019-03-08T08:53:05.818Z,6.25
2019-03-08T08:55:35.850Z,4.97
2019-03-08T08:58:15.307Z,5.22
2019-03-08T09:00:48.266Z,5.62
2019-03-08T09:03:18.301Z,5.72
2019-03-08T09:06:05.809Z,5.70
2019-03-08T09:08:38.283Z,5.87
2019-03-08T09:16:26.149Z,5.42
2019-03-08T09:18:59.377Z,5.60
2019-03-08T09:21:29.407Z,6.45
2019-03-08T09:23:59.980Z,5.05
2019-03-08T09:26:45.521Z,6.22
2019-03-08T09:29:15.559Z,5.58
2019-03-08T09:32:01.993Z,6.33
2019-03-08T09:34:32.077Z,6.33
2019-03-08T09:37:07.306Z,5.72
2019-03-08T09:39:42.032Z,5.67
2019-03-08T09:42:12.090Z,5.40
2019-03-08T09:44:43.043Z,4.53
2019-03-08T09:47:28.447Z,6.42
2019-03-08T09:50:07.213Z,6.22
2019-03-08T09:52:37.351Z,4.12
2019-03-08T09:55:10.272Z,5.05
2019-03-08T09:57:40.656Z,4.30
2019-03-08T10:00:26.218Z,3.80
2019-03-08T10:02:56.245Z,3.92
2019-03-08T10:05:26.259Z,3.87
2019-03-08T10:07:56.345Z,4.58
2019-03-08T10:10:29.118Z,4.70
2019-03-08T10:12:59.177Z,4.97
2019-03-08T10:15:32.261Z,4.80
2019-03-08T10:18:05.123Z,5.30
2019-03-08T10:20:50.480Z,4.20
2019-03-08T10:23:23.263Z,4.87
2019-03-08T10:25:53.324Z,4.30
2019-03-08T10:28:23.547Z,5.25
2019-03-08T10:31:10.352Z,5.80
2019-03-08T10:33:52.441Z,5.00
2019-03-08T10:36:34.709Z,5.33
2019-03-08T10:39:22.901Z,5.08
2019-03-08T10:41:52.961Z,4.92
2019-03-08T10:44:32.140Z,5.78
2019-03-08T10:47:05.263Z,4.45
2019-03-08T10:49:54.987Z,3.62
2019-03-08T10:52:35.398Z,4.22
2019-03-08T10:55:08.836Z,4.87
2019-03-08T10:57:49.068Z,3.62
2019-03-08T11:00:20.294Z,4.03
2019-03-08T11:03:02.176Z,6.37
2019-03-08T11:05:45.579Z,4.50
2019-03-08T11:08:29.569Z,5.28
2019-03-08T11:11:06.430Z,3.95
2019-03-08T11:13:32.207Z,3.72
2019-03-08T11:16:20.342Z,4.42
2019-03-08T11:19:08.304Z,3.95
2019-03-08T11:21:32.452Z,5.15
2019-03-08T11:24:02.490Z,5.00
2019-03-08T11:26:32.546Z,5.17
2019-03-08T11:29:08.352Z,4.37
2019-03-08T11:31:50.628Z,3.70
2019-03-08T11:34:25.402Z,4.17
2019-03-08T11:36:55.555Z,3.75
2019-03-08T11:39:46.177Z,4.22
2019-03-08T11:42:21.438Z,4.55
2019-03-08T11:45:00.341Z,2.98
2019-03-08T11:47:30.344Z,3.70
2019-03-08T11:50:00.404Z,4.40
2019-03-08T11:52:33.415Z,4.67
2019-03-08T11:55:11.614Z,4.42
2019-03-08T11:57:56.191Z,5.10
2019-03-08T12:00:38.398Z,3.75
2019-03-08T12:03:16.920Z,3.37
2019-03-08T12:05:49.999Z,3.90
2019-03-08T12:08:40.519Z,4.28
2019-03-08T12:11:16.518Z,4.30
2019-03-08T12:13:56.192Z,4.80
2019-03-08T12:16:26.279Z,4.03
2019-03-08T12:19:12.738Z,4.72
2019-03-08T12:21:58.866Z,4.97
2019-03-08T12:24:32.209Z,3.55
2019-03-08T12:27:02.279Z,3.60
2019-03-08T12:29:41.342Z,4.15
2019-03-08T12:32:11.373Z,4.92
2019-03-08T12:34:44.071Z,3.37
2019-03-08T12:37:16.536Z,3.75
2019-03-08T12:39:49.622Z,4.08
2019-03-08T12:42:25.976Z,3.70
2019-03-08T12:45:06.857Z,4.05
2019-03-08T12:47:45.362Z,3.58
2019-03-08T12:50:15.748Z,3.62
2019-03-08T12:52:45.897Z,3.37
2019-03-08T12:55:25.222Z,3.33
2019-03-08T12:57:55.555Z,3.20
2019-03-08T13:00:25.629Z,3.30
2019-03-08T13:03:15.115Z,3.50
2019-03-08T13:06:01.695Z,4.30
2019-03-08T13:08:31.776Z,3.58
2019-03-08T13:11:03.674Z,3.90
2019-03-08T13:13:32.075Z,4.17
2019-03-08T13:16:00.492Z,4.12
2019-03-08T13:18:29.077Z,4.22
2019-03-08T13:20:58.590Z,3.12
2019-03-08T13:23:28.063Z,3.58
2019-03-08T13:25:56.516Z,4.05
2019-03-08T13:28:24.916Z,3.27
2019-03-08T13:30:53.309Z,3.47
2019-03-08T13:33:21.991Z,3.42
2019-03-08T13:35:50.465Z,3.37
2019-03-08T13:38:31.074Z,2.87
2019-03-08T13:41:03.310Z,3.40
2019-03-08T13:43:31.731Z,3.30
2019-03-08T13:46:05.367Z,2.87
2019-03-08T13:48:33.769Z,3.17
2019-03-08T13:51:04.570Z,3.50
2019-03-08T13:53:32.948Z,3.15
2019-03-08T13:56:01.453Z,2.95
2019-03-08T13:58:32.943Z,3.05
2019-03-08T14:01:01.426Z,2.87
2019-03-08T14:03:36.635Z,2.45
2019-03-08T14:06:01.037Z,2.35
2019-03-08T14:08:30.088Z,3.17
2019-03-08T14:10:58.476Z,3.10
2019-03-08T14:13:29.615Z,3.22
2019-03-08T14:16:02.738Z,3.45
2019-03-08T14:18:31.144Z,4.40
2019-03-08T14:20:59.551Z,3.02
2019-03-08T14:23:30.854Z,3.98
2019-03-08T14:26:01.659Z,3.62
2019-03-08T14:28:30.287Z,3.33
2019-03-08T14:31:15.832Z,3.47
2019-03-08T14:33:48.098Z,3.22
2019-03-08T14:36:16.682Z,3.08
2019-03-08T14:38:45.015Z,2.80
2019-03-08T14:41:15.053Z,3.12
2019-03-08T14:43:53.809Z,3.40
2019-03-08T14:46:29.714Z,3.27
2019-03-08T14:49:00.833Z,3.02
2019-03-08T14:51:31.916Z,3.50
2019-03-08T14:54:00.292Z,3.33
2019-03-08T14:56:35.470Z,2.67
2019-03-08T14:59:01.928Z,3.25
2019-03-08T15:01:34.207Z,3.45
2019-03-08T15:04:03.782Z,2.75
2019-03-08T15:06:32.183Z,3.20
2019-03-08T15:09:00.595Z,1.87
2019-03-08T15:11:28.974Z,2.67
2019-03-08T15:13:58.987Z,3.05
2019-03-08T15:16:27.577Z,2.87
2019-03-08T15:18:57.940Z,2.80
2019-03-08T15:21:26.328Z,3.05
2019-03-08T15:23:55.979Z,2.58
2019-03-08T15:26:25.452Z,2.50
2019-03-08T15:28:58.998Z,2.70
2019-03-08T15:31:27.398Z,3.00
2019-03-08T15:33:59.466Z,2.15
2019-03-08T15:36:27.851Z,3.47
2019-03-08T15:38:58.777Z,3.08
2019-03-08T15:41:34.303Z,2.95
2019-03-08T15:43:58.824Z,2.45
2019-03-08T15:46:27.260Z,2.60
2019-03-08T15:48:56.994Z,3.00
2019-03-08T15:51:25.684Z,2.67
2019-03-08T15:54:00.671Z,2.20
2019-03-08T15:56:30.047Z,2.72
2019-03-08T15:58:59.450Z,2.98
2019-03-08T16:01:27.908Z,2.90
2019-03-08T16:03:57.223Z,3.37
2019-03-08T16:06:26.243Z,2.87
2019-03-08T16:08:55.721Z,3.17
2019-03-08T16:11:25.074Z,3.52
2019-03-08T16:13:57.494Z,3.50
2019-03-08T16:16:25.930Z,3.35
2019-03-08T16:18:56.804Z,4.65
2019-03-08T16:21:26.305Z,4.15
2019-03-08T16:23:54.724Z,2.92
2019-03-08T16:26:25.383Z,3.52
2019-03-08T16:28:53.279Z,4.30
2019-03-08T16:31:26.639Z,3.52
2019-03-08T16:34:05.539Z,3.67
2019-03-08T16:36:35.534Z,3.20
2019-03-08T16:39:14.768Z,2.92
2019-03-08T16:42:00.884Z,3.62
2019-03-08T16:45:04.342Z,3.62
2019-03-08T16:47:43.834Z,3.05
2019-03-08T16:50:16.288Z,2.58
2019-03-08T16:52:57.893Z,2.33
2019-03-08T16:55:35.584Z,2.40
2019-03-08T16:58:31.238Z,2.83
2019-03-08T17:01:20.591Z,2.12
2019-03-08T17:04:02.141Z,2.00
2019-03-08T17:06:34.687Z,2.60
2019-03-08T17:11:58.087Z,2.25
2019-03-08T17:14:37.804Z,2.42
2019-03-08T17:17:08.068Z,2.47
2019-03-08T17:19:45.355Z,1.62
2019-03-08T17:22:24.513Z,3.00
2019-03-08T17:25:14.405Z,2.33
2019-03-08T17:27:48.471Z,2.00
2019-03-08T17:30:25.624Z,1.90
2019-03-08T17:33:14.424Z,2.35
2019-03-08T17:35:45.507Z,2.25
2019-03-08T17:38:16.097Z,2.85
2019-03-08T17:40:48.398Z,2.10
2019-03-08T17:46:09.471Z,2.80
2019-03-08T17:48:51.502Z,3.40
2019-03-08T17:51:30.788Z,3.33
2019-03-08T17:54:17.744Z,2.92
2019-03-08T17:56:59.580Z,2.40
2019-03-08T17:59:38.332Z,2.53
2019-03-08T18:02:11.328Z,2.98
2019-03-08T18:04:47.708Z,2.72
2019-03-08T18:07:21.922Z,3.12
2019-03-08T18:09:52.063Z,4.08
2019-03-08T18:12:38.686Z,2.98
2019-03-08T18:15:13.343Z,3.35
2019-03-08T18:17:58.657Z,3.98
2019-03-08T18:20:29.988Z,3.10
2019-03-08T18:23:15.339Z,2.70
2019-03-08T18:25:55.376Z,2.42
2019-03-08T18:28:45.336Z,2.87
2019-03-08T18:31:15.386Z,2.50
2019-03-08T18:33:46.320Z,3.15
2019-03-08T18:36:25.380Z,3.77
2019-03-08T18:39:06.548Z,3.70
2019-03-08T18:41:36.660Z,3.02
2019-03-08T18:44:09.753Z,3.85
2019-03-08T18:46:58.246Z,4.60
2019-03-08T18:49:28.468Z,3.58
2019-03-08T18:52:14.720Z,3.98
2019-03-08T18:55:01.377Z,4.22
2019-03-08T18:57:49.736Z,3.52
2019-03-08T19:00:37.565Z,3.75
2019-03-08T19:03:24.569Z,4.05
2019-03-08T19:05:57.711Z,4.65
2019-03-08T19:08:35.526Z,3.60
2019-03-08T19:11:05.678Z,3.90
2019-03-08T19:13:44.389Z,4.92
2019-03-08T19:16:32.444Z,3.47
2019-03-08T19:19:03.508Z,3.87
2019-03-08T19:21:53.885Z,4.28
2019-03-08T19:24:32.508Z,3.92
2019-03-08T19:27:07.097Z,3.80
2019-03-08T19:29:42.484Z,4.50
2019-03-08T19:32:15.678Z,3.72
2019-03-08T19:35:08.854Z,4.78
2019-03-08T19:37:42.537Z,4.35
2019-03-08T19:40:18.027Z,3.83
2019-03-08T19:43:04.300Z,4.37
2019-03-08T19:45:34.616Z,4.95
2019-03-08T19:48:21.529Z,5.15
2019-03-08T19:50:57.095Z,4.05
2019-03-08T19:53:31.232Z,4.53
2019-03-08T19:56:07.151Z,4.25
2019-03-08T19:58:52.077Z,4.22
2019-03-08T20:01:26.155Z,3.67
2019-03-08T20:04:00.743Z,3.80
2019-03-08T20:06:31.097Z,4.35
2019-03-08T20:09:07.553Z,4.25
2019-03-08T20:11:38.925Z,4.28
2019-03-08T20:14:24.003Z,4.30
2019-03-08T20:17:00.055Z,4.35
2019-03-08T20:19:47.138Z,4.45
2019-03-08T20:22:25.049Z,4.37
2019-03-08T20:25:24.635Z,5.22
2019-03-08T20:27:55.269Z,5.55
2019-03-08T20:30:40.663Z,5.42
2019-03-08T20:33:17.030Z,5.30
2019-03-08T20:35:51.385Z,4.75
2019-03-08T20:38:21.143Z,4.85
2019-03-08T20:41:00.158Z,4.45
2019-03-08T20:43:30.386Z,4.62
2019-03-08T20:46:00.525Z,4.33
2019-03-08T20:48:29.621Z,5.00
2019-03-08T20:50:58.112Z,4.28
2019-03-08T20:53:30.309Z,6.05
2019-03-08T20:55:58.895Z,4.72
2019-03-08T20:58:28.399Z,4.95
2019-03-08T21:00:57.224Z,5.75
2019-03-08T21:03:25.639Z,5.00
2019-03-08T21:05:54.411Z,4.97
2019-03-08T21:08:22.901Z,5.12
2019-03-08T21:10:53.764Z,5.08
2019-03-08T21:13:24.631Z,5.87
2019-03-08T21:19:01.629Z,5.03
2019-03-08T21:21:38.680Z,5.62
2019-03-08T21:24:07.526Z,6.08
2019-03-08T21:26:35.953Z,5.90
2019-03-08T21:29:17.042Z,5.05
2019-03-08T21:31:49.538Z,5.85
2019-03-08T21:34:20.538Z,5.80
2019-03-08T21:36:51.396Z,5.67
2019-03-08T21:39:21.140Z,5.65
2019-03-08T21:41:49.624Z,4.83
2019-03-08T21:44:18.007Z,5.72
2019-03-08T21:46:46.779Z,4.92
2019-03-08T21:49:17.626Z,4.90
2019-03-08T21:51:49.534Z,5.60
2019-03-08T21:54:22.108Z,4.47
2019-03-08T21:59:18.567Z,4.75
2019-03-08T22:01:46.989Z,3.95
2019-03-08T22:04:17.040Z,4.83
2019-03-08T22:06:45.521Z,4.47
2019-03-08T22:09:18.719Z,5.15
2019-03-08T22:11:50.065Z,5.65
2019-03-08T22:14:19.475Z,4.72
2019-03-08T22:16:47.993Z,5.03
2019-03-08T22:19:24.957Z,4.80
2019-03-08T22:21:53.376Z,5.58
2019-03-08T22:24:22.775Z,4.53
2019-03-08T22:26:53.919Z,5.42
2019-03-08T22:29:22.445Z,4.85
2019-03-08T22:31:50.889Z,4.40
2019-03-08T22:34:23.133Z,4.58
2019-03-08T22:36:51.545Z,4.87
2019-03-08T22:39:19.947Z,4.60
2019-03-08T22:41:48.367Z,5.10
2019-03-08T22:44:16.795Z,4.42
2019-03-08T22:46:46.363Z,3.40
2019-03-08T22:49:16.198Z,4.97
2019-03-08T22:51:44.586Z,4.85
2019-03-08T22:54:14.056Z,4.47
2019-03-08T22:56:46.561Z,4.35
2019-03-08T23:01:51.504Z,3.40
2019-03-08T23:04:20.324Z,4.10
2019-03-08T23:06:48.862Z,4.80
2019-03-08T23:09:17.818Z,3.92
2019-03-08T23:11:46.375Z,4.75
2019-03-08T23:14:14.798Z,4.40
2019-03-08T23:16:46.994Z,4.35
2019-03-08T23:19:17.817Z,5.35
2019-03-08T23:21:46.217Z,4.47
2019-03-08T23:24:18.769Z,4.95
2019-03-08T23:26:48.803Z,4.60
2019-03-08T23:29:23.520Z,4.87
2019-03-08T23:31:53.551Z,4.35
2019-03-08T23:34:21.967Z,5.40
2019-03-08T23:36:50.685Z,4.75
2019-03-08T23:39:19.120Z,4.37
2019-03-08T23:41:47.537Z,4.45
2019-03-08T23:44:15.918Z,4.35
2019-03-08T23:46:45.119Z,4.72
2019-03-08T23:49:13.515Z,4.70
2019-03-08T23:51:42.813Z,4.65
2019-03-08T23:54:14.122Z,4.20
2019-03-08T23:56:43.449Z,4.80
2019-03-08T23:59:11.854Z,4.60
